sensor_id;sensor_type;location;lat;lon;timestamp;P1;durP1;ratioP1;P2;durP2;ratioP2
51556;SDS011;38766;53.194;5.532;2022-12-05T00:01:38;31.67;;;17.23;;
51556;SDS011;38766;53.194;5.532;2022-12-05T00:04:07;32.58;;;18.10;;
51556;SDS011;38766;53.194;5.532;2022-12-05T00:06:35;32.72;;;18.10;;
51556;SDS011;38766;53.194;5.532;2022-12-05T00:09:02;29.70;;;17.52;;
51556;SDS011;38766;53.194;5.532;2022-12-05T00:11:29;28.58;;;16.67;;
51556;SDS011;38766;53.194;5.532;2022-12-05T00:13:57;29.20;;;16.95;;
51556;SDS011;38766;53.194;5.532;2022-12-05T00:16:24;31.02;;;16.65;;
51556;SDS011;38766;53.194;5.532;2022-12-05T00:18:51;32.22;;;17.40;;
51556;SDS011;38766;53.194;5.532;2022-12-05T00:21:24;30.85;;;17.00;;
51556;SDS011;38766;53.194;5.532;2022-12-05T00:23:52;32.13;;;17.20;;
51556;SDS011;38766;53.194;5.532;2022-12-05T00:26:19;29.45;;;16.45;;
51556;SDS011;38766;53.194;5.532;2022-12-05T00:28:45;29.33;;;16.70;;
51556;SDS011;38766;53.194;5.532;2022-12-05T00:31:16;28.75;;;16.65;;
51556;SDS011;38766;53.194;5.532;2022-12-05T00:33:45;30.35;;;16.23;;
51556;SDS011;38766;53.194;5.532;2022-12-05T00:36:16;25.73;;;15.27;;
51556;SDS011;38766;53.194;5.532;2022-12-05T00:38:43;29.70;;;16.15;;
51556;SDS011;38766;53.194;5.532;2022-12-05T00:41:11;27.63;;;17.25;;
51556;SDS011;38766;53.194;5.532;2022-12-05T00:43:39;29.80;;;16.40;;
51556;SDS011;38766;53.194;5.532;2022-12-05T00:46:10;28.58;;;15.38;;
51556;SDS011;38766;53.194;5.532;2022-12-05T00:48:37;25.60;;;14.60;;
51556;SDS011;38766;53.194;5.532;2022-12-05T00:51:06;27.27;;;15.38;;
51556;SDS011;38766;53.194;5.532;2022-12-05T00:53:33;24.08;;;14.70;;
51556;SDS011;38766;53.194;5.532;2022-12-05T00:56:03;28.02;;;15.18;;
51556;SDS011;38766;53.194;5.532;2022-12-05T00:58:30;23.42;;;14.25;;
51556;SDS011;38766;53.194;5.532;2022-12-05T01:00:57;24.83;;;15.02;;
51556;SDS011;38766;53.194;5.532;2022-12-05T01:03:43;23.95;;;14.13;;
51556;SDS011;38766;53.194;5.532;2022-12-05T01:06:10;22.73;;;14.35;;
51556;SDS011;38766;53.194;5.532;2022-12-05T01:08:36;26.17;;;14.02;;
51556;SDS011;38766;53.194;5.532;2022-12-05T01:11:03;25.42;;;15.45;;
51556;SDS011;38766;53.194;5.532;2022-12-05T01:13:29;27.17;;;15.00;;
51556;SDS011;38766;53.194;5.532;2022-12-05T01:15:56;25.40;;;14.70;;
51556;SDS011;38766;53.194;5.532;2022-12-05T01:18:22;24.80;;;15.10;;
51556;SDS011;38766;53.194;5.532;2022-12-05T01:20:48;25.63;;;14.00;;
51556;SDS011;38766;53.194;5.532;2022-12-05T01:23:14;27.35;;;15.63;;
51556;SDS011;38766;53.194;5.532;2022-12-05T01:25:41;24.02;;;15.70;;
51556;SDS011;38766;53.194;5.532;2022-12-05T01:28:09;29.45;;;15.68;;
51556;SDS011;38766;53.194;5.532;2022-12-05T01:30:42;30.58;;;16.45;;
51556;SDS011;38766;53.194;5.532;2022-12-05T01:33:09;30.37;;;16.50;;
51556;SDS011;38766;53.194;5.532;2022-12-05T01:35:36;27.48;;;16.42;;
51556;SDS011;38766;53.194;5.532;2022-12-05T01:38:03;26.88;;;15.60;;
51556;SDS011;38766;53.194;5.532;2022-12-05T01:40:29;29.50;;;16.98;;
51556;SDS011;38766;53.194;5.532;2022-12-05T01:42:55;25.67;;;15.35;;
51556;SDS011;38766;53.194;5.532;2022-12-05T01:45:33;26.27;;;14.50;;
51556;SDS011;38766;53.194;5.532;2022-12-05T01:48:06;25.08;;;14.77;;
51556;SDS011;38766;53.194;5.532;2022-12-05T01:50:49;29.20;;;15.98;;
51556;SDS011;38766;53.194;5.532;2022-12-05T01:53:15;27.60;;;16.38;;
51556;SDS011;38766;53.194;5.532;2022-12-05T01:55:42;27.40;;;17.05;;
51556;SDS011;38766;53.194;5.532;2022-12-05T01:58:09;27.58;;;15.55;;
51556;SDS011;38766;53.194;5.532;2022-12-05T02:00:35;27.33;;;16.05;;
51556;SDS011;38766;53.194;5.532;2022-12-05T02:03:05;28.23;;;16.17;;
51556;SDS011;38766;53.194;5.532;2022-12-05T02:05:34;25.65;;;15.40;;
51556;SDS011;38766;53.194;5.532;2022-12-05T02:08:04;27.05;;;15.02;;
51556;SDS011;38766;53.194;5.532;2022-12-05T02:10:34;34.53;;;17.10;;
51556;SDS011;38766;53.194;5.532;2022-12-05T02:13:16;28.00;;;15.20;;
51556;SDS011;38766;53.194;5.532;2022-12-05T02:21:53;29.20;;;15.25;;
51556;SDS011;38766;53.194;5.532;2022-12-05T02:30:07;27.15;;;14.63;;
51556;SDS011;38766;53.194;5.532;2022-12-05T02:40:40;21.02;;;12.70;;
51556;SDS011;38766;53.194;5.532;2022-12-05T02:45:47;22.60;;;11.98;;
51556;SDS011;38766;53.194;5.532;2022-12-05T02:48:16;23.80;;;11.48;;
51556;SDS011;38766;53.194;5.532;2022-12-05T02:50:44;22.13;;;10.95;;
51556;SDS011;38766;53.194;5.532;2022-12-05T02:53:13;21.52;;;11.77;;
51556;SDS011;38766;53.194;5.532;2022-12-05T02:55:41;19.50;;;10.95;;
51556;SDS011;38766;53.194;5.532;2022-12-05T02:58:10;21.17;;;10.95;;
51556;SDS011;38766;53.194;5.532;2022-12-05T03:03:13;16.80;;;10.32;;
51556;SDS011;38766;53.194;5.532;2022-12-05T03:08:12;21.95;;;9.98;;
51556;SDS011;38766;53.194;5.532;2022-12-05T03:10:43;19.40;;;9.15;;
51556;SDS011;38766;53.194;5.532;2022-12-05T03:16:13;14.57;;;8.60;;
51556;SDS011;38766;53.194;5.532;2022-12-05T03:18:55;22.52;;;8.98;;
51556;SDS011;38766;53.194;5.532;2022-12-05T03:21:26;17.17;;;8.90;;
51556;SDS011;38766;53.194;5.532;2022-12-05T03:24:07;17.75;;;8.95;;
51556;SDS011;38766;53.194;5.532;2022-12-05T03:31:52;17.55;;;8.45;;
51556;SDS011;38766;53.194;5.532;2022-12-05T03:34:20;14.75;;;8.10;;
51556;SDS011;38766;53.194;5.532;2022-12-05T03:37:02;16.30;;;8.30;;
51556;SDS011;38766;53.194;5.532;2022-12-05T03:39:34;15.65;;;8.43;;
51556;SDS011;38766;53.194;5.532;2022-12-05T03:42:13;14.60;;;8.40;;
51556;SDS011;38766;53.194;5.532;2022-12-05T03:44:47;13.00;;;8.48;;
51556;SDS011;38766;53.194;5.532;2022-12-05T03:49:57;16.63;;;8.00;;
51556;SDS011;38766;53.194;5.532;2022-12-05T03:52:29;13.68;;;8.63;;
51556;SDS011;38766;53.194;5.532;2022-12-05T03:55:00;14.18;;;8.25;;
51556;SDS011;38766;53.194;5.532;2022-12-05T03:57:37;17.55;;;7.68;;
51556;SDS011;38766;53.194;5.532;2022-12-05T04:00:13;15.10;;;7.90;;
51556;SDS011;38766;53.194;5.532;2022-12-05T04:05:23;16.10;;;7.80;;
51556;SDS011;38766;53.194;5.532;2022-12-05T04:08:06;15.33;;;7.33;;
51556;SDS011;38766;53.194;5.532;2022-12-05T04:11:06;18.77;;;8.15;;
51556;SDS011;38766;53.194;5.532;2022-12-05T04:13:38;15.30;;;8.15;;
51556;SDS011;38766;53.194;5.532;2022-12-05T04:16:13;22.20;;;8.15;;
51556;SDS011;38766;53.194;5.532;2022-12-05T04:19:04;15.75;;;7.40;;
51556;SDS011;38766;53.194;5.532;2022-12-05T04:21:42;15.43;;;7.35;;
51556;SDS011;38766;53.194;5.532;2022-12-05T04:24:13;15.20;;;6.68;;
51556;SDS011;38766;53.194;5.532;2022-12-05T04:27:03;15.88;;;6.93;;
51556;SDS011;38766;53.194;5.532;2022-12-05T04:29:53;15.65;;;7.03;;
51556;SDS011;38766;53.194;5.532;2022-12-05T04:32:28;18.48;;;7.50;;
51556;SDS011;38766;53.194;5.532;2022-12-05T04:35:00;14.43;;;7.68;;
51556;SDS011;38766;53.194;5.532;2022-12-05T04:37:31;15.73;;;6.78;;
51556;SDS011;38766;53.194;5.532;2022-12-05T04:40:04;15.50;;;7.63;;
51556;SDS011;38766;53.194;5.532;2022-12-05T04:42:37;23.05;;;7.90;;
51556;SDS011;38766;53.194;5.532;2022-12-05T04:45:07;15.68;;;7.20;;
51556;SDS011;38766;53.194;5.532;2022-12-05T04:47:39;17.13;;;7.47;;
51556;SDS011;38766;53.194;5.532;2022-12-05T04:50:10;13.98;;;6.90;;
51556;SDS011;38766;53.194;5.532;2022-12-05T04:52:38;14.15;;;7.80;;
51556;SDS011;38766;53.194;5.532;2022-12-05T04:55:13;14.73;;;7.78;;
51556;SDS011;38766;53.194;5.532;2022-12-05T05:00:42;13.37;;;7.70;;
51556;SDS011;38766;53.194;5.532;2022-12-05T05:03:12;16.55;;;7.63;;
51556;SDS011;38766;53.194;5.532;2022-12-05T05:05:56;16.38;;;8.13;;
51556;SDS011;38766;53.194;5.532;2022-12-05T05:08:23;15.13;;;7.95;;
51556;SDS011;38766;53.194;5.532;2022-12-05T05:10:54;17.67;;;8.55;;
51556;SDS011;38766;53.194;5.532;2022-12-05T05:13:37;16.08;;;8.13;;
51556;SDS011;38766;53.194;5.532;2022-12-05T05:16:02;15.68;;;8.25;;
51556;SDS011;38766;53.194;5.532;2022-12-05T05:18:29;15.48;;;8.00;;
51556;SDS011;38766;53.194;5.532;2022-12-05T05:20:55;14.93;;;7.95;;
51556;SDS011;38766;53.194;5.532;2022-12-05T05:23:20;18.02;;;8.98;;
51556;SDS011;38766;53.194;5.532;2022-12-05T05:25:50;13.35;;;7.50;;
51556;SDS011;38766;53.194;5.532;2022-12-05T05:28:17;19.25;;;8.82;;
51556;SDS011;38766;53.194;5.532;2022-12-05T05:30:43;16.90;;;8.77;;
51556;SDS011;38766;53.194;5.532;2022-12-05T05:33:08;16.77;;;8.80;;
51556;SDS011;38766;53.194;5.532;2022-12-05T05:35:37;19.23;;;8.30;;
51556;SDS011;38766;53.194;5.532;2022-12-05T05:38:02;18.33;;;8.15;;
51556;SDS011;38766;53.194;5.532;2022-12-05T05:40:28;13.27;;;8.18;;
51556;SDS011;38766;53.194;5.532;2022-12-05T05:42:54;17.08;;;7.75;;
51556;SDS011;38766;53.194;5.532;2022-12-05T05:45:20;17.63;;;8.88;;
51556;SDS011;38766;53.194;5.532;2022-12-05T05:47:48;18.70;;;8.43;;
51556;SDS011;38766;53.194;5.532;2022-12-05T05:50:14;14.40;;;8.75;;
51556;SDS011;38766;53.194;5.532;2022-12-05T05:52:40;19.55;;;9.45;;
51556;SDS011;38766;53.194;5.532;2022-12-05T05:55:06;16.80;;;8.45;;
51556;SDS011;38766;53.194;5.532;2022-12-05T05:57:33;15.45;;;7.90;;
51556;SDS011;38766;53.194;5.532;2022-12-05T05:59:59;17.70;;;7.85;;
51556;SDS011;38766;53.194;5.532;2022-12-05T06:02:25;16.27;;;8.18;;
51556;SDS011;38766;53.194;5.532;2022-12-05T06:04:56;17.40;;;8.55;;
51556;SDS011;38766;53.194;5.532;2022-12-05T06:07:21;14.93;;;7.65;;
51556;SDS011;38766;53.194;5.532;2022-12-05T06:09:47;19.27;;;8.00;;
51556;SDS011;38766;53.194;5.532;2022-12-05T06:12:12;19.00;;;8.48;;
51556;SDS011;38766;53.194;5.532;2022-12-05T06:14:38;19.75;;;8.70;;
51556;SDS011;38766;53.194;5.532;2022-12-05T06:17:03;17.15;;;8.25;;
51556;SDS011;38766;53.194;5.532;2022-12-05T06:19:29;18.45;;;8.43;;
51556;SDS011;38766;53.194;5.532;2022-12-05T06:21:55;16.13;;;8.02;;
51556;SDS011;38766;53.194;5.532;2022-12-05T06:24:20;18.77;;;7.88;;
51556;SDS011;38766;53.194;5.532;2022-12-05T06:26:46;14.05;;;8.55;;
51556;SDS011;38766;53.194;5.532;2022-12-05T06:29:11;19.23;;;7.80;;
51556;SDS011;38766;53.194;5.532;2022-12-05T06:31:37;20.40;;;8.95;;
51556;SDS011;38766;53.194;5.532;2022-12-05T06:34:02;15.52;;;8.35;;
51556;SDS011;38766;53.194;5.532;2022-12-05T06:36:28;20.23;;;8.10;;
51556;SDS011;38766;53.194;5.532;2022-12-05T06:38:58;17.70;;;7.43;;
51556;SDS011;38766;53.194;5.532;2022-12-05T06:41:24;16.45;;;7.78;;
51556;SDS011;38766;53.194;5.532;2022-12-05T06:43:55;20.17;;;8.80;;
51556;SDS011;38766;53.194;5.532;2022-12-05T06:46:22;15.82;;;7.85;;
51556;SDS011;38766;53.194;5.532;2022-12-05T06:48:53;19.73;;;8.15;;
51556;SDS011;38766;53.194;5.532;2022-12-05T06:51:20;14.40;;;8.60;;
51556;SDS011;38766;53.194;5.532;2022-12-05T06:53:46;20.00;;;7.68;;
51556;SDS011;38766;53.194;5.532;2022-12-05T06:56:13;21.30;;;7.90;;
51556;SDS011;38766;53.194;5.532;2022-12-05T06:58:41;18.35;;;8.27;;
51556;SDS011;38766;53.194;5.532;2022-12-05T07:01:11;20.83;;;7.63;;
51556;SDS011;38766;53.194;5.532;2022-12-05T07:03:57;20.92;;;8.38;;
51556;SDS011;38766;53.194;5.532;2022-12-05T07:06:23;18.38;;;7.82;;
51556;SDS011;38766;53.194;5.532;2022-12-05T07:08:49;16.63;;;6.80;;
51556;SDS011;38766;53.194;5.532;2022-12-05T07:11:15;13.95;;;7.43;;
51556;SDS011;38766;53.194;5.532;2022-12-05T07:13:41;21.40;;;8.23;;
51556;SDS011;38766;53.194;5.532;2022-12-05T07:16:06;15.95;;;6.68;;
51556;SDS011;38766;53.194;5.532;2022-12-05T07:18:32;17.73;;;7.07;;
51556;SDS011;38766;53.194;5.532;2022-12-05T07:21:00;15.02;;;6.88;;
51556;SDS011;38766;53.194;5.532;2022-12-05T07:23:27;15.20;;;7.05;;
51556;SDS011;38766;53.194;5.532;2022-12-05T07:25:53;18.65;;;6.85;;
51556;SDS011;38766;53.194;5.532;2022-12-05T07:28:18;15.38;;;6.50;;
51556;SDS011;38766;53.194;5.532;2022-12-05T07:30:45;16.40;;;7.20;;
51556;SDS011;38766;53.194;5.532;2022-12-05T07:33:10;17.77;;;6.22;;
51556;SDS011;38766;53.194;5.532;2022-12-05T07:35:36;16.90;;;6.97;;
51556;SDS011;38766;53.194;5.532;2022-12-05T07:38:02;21.20;;;7.50;;
51556;SDS011;38766;53.194;5.532;2022-12-05T07:40:27;17.85;;;6.40;;
51556;SDS011;38766;53.194;5.532;2022-12-05T07:42:53;17.35;;;7.25;;
51556;SDS011;38766;53.194;5.532;2022-12-05T07:45:19;16.10;;;6.38;;
51556;SDS011;38766;53.194;5.532;2022-12-05T07:47:45;13.70;;;6.75;;
51556;SDS011;38766;53.194;5.532;2022-12-05T07:50:10;18.02;;;7.00;;
51556;SDS011;38766;53.194;5.532;2022-12-05T07:52:39;17.40;;;6.50;;
51556;SDS011;38766;53.194;5.532;2022-12-05T07:55:26;13.70;;;6.30;;
51556;SDS011;38766;53.194;5.532;2022-12-05T07:57:51;21.55;;;8.20;;
51556;SDS011;38766;53.194;5.532;2022-12-05T08:00:17;21.08;;;7.18;;
51556;SDS011;38766;53.194;5.532;2022-12-05T08:02:43;16.52;;;6.80;;
51556;SDS011;38766;53.194;5.532;2022-12-05T08:05:11;15.60;;;6.47;;
51556;SDS011;38766;53.194;5.532;2022-12-05T08:07:57;19.30;;;6.68;;
51556;SDS011;38766;53.194;5.532;2022-12-05T08:10:32;17.17;;;6.30;;
51556;SDS011;38766;53.194;5.532;2022-12-05T08:12:59;13.70;;;6.43;;
51556;SDS011;38766;53.194;5.532;2022-12-05T08:15:24;15.63;;;5.70;;
51556;SDS011;38766;53.194;5.532;2022-12-05T08:17:50;13.60;;;6.40;;
51556;SDS011;38766;53.194;5.532;2022-12-05T08:20:16;21.40;;;6.35;;
51556;SDS011;38766;53.194;5.532;2022-12-05T08:22:41;19.98;;;6.70;;
51556;SDS011;38766;53.194;5.532;2022-12-05T08:25:07;29.15;;;6.93;;
51556;SDS011;38766;53.194;5.532;2022-12-05T08:27:33;21.40;;;6.32;;
51556;SDS011;38766;53.194;5.532;2022-12-05T08:29:59;13.48;;;6.50;;
51556;SDS011;38766;53.194;5.532;2022-12-05T08:32:25;18.23;;;6.68;;
51556;SDS011;38766;53.194;5.532;2022-12-05T08:34:54;14.45;;;6.53;;
51556;SDS011;38766;53.194;5.532;2022-12-05T08:37:19;12.73;;;6.13;;
51556;SDS011;38766;53.194;5.532;2022-12-05T08:39:45;16.77;;;6.63;;
51556;SDS011;38766;53.194;5.532;2022-12-05T08:42:10;15.68;;;6.18;;
51556;SDS011;38766;53.194;5.532;2022-12-05T08:44:36;13.98;;;6.35;;
51556;SDS011;38766;53.194;5.532;2022-12-05T08:47:02;21.65;;;6.60;;
51556;SDS011;38766;53.194;5.532;2022-12-05T08:49:27;16.92;;;6.60;;
51556;SDS011;38766;53.194;5.532;2022-12-05T08:51:53;16.45;;;6.60;;
51556;SDS011;38766;53.194;5.532;2022-12-05T08:54:18;16.80;;;7.20;;
51556;SDS011;38766;53.194;5.532;2022-12-05T08:56:44;21.08;;;6.90;;
51556;SDS011;38766;53.194;5.532;2022-12-05T08:59:12;12.35;;;5.68;;
51556;SDS011;38766;53.194;5.532;2022-12-05T09:01:38;12.73;;;6.43;;
51556;SDS011;38766;53.194;5.532;2022-12-05T09:04:04;15.07;;;5.82;;
51556;SDS011;38766;53.194;5.532;2022-12-05T09:06:31;15.88;;;6.20;;
51556;SDS011;38766;53.194;5.532;2022-12-05T09:08:59;11.38;;;6.45;;
51556;SDS011;38766;53.194;5.532;2022-12-05T09:11:27;13.93;;;6.40;;
51556;SDS011;38766;53.194;5.532;2022-12-05T09:13:54;16.13;;;6.03;;
51556;SDS011;38766;53.194;5.532;2022-12-05T09:16:22;12.57;;;5.50;;
51556;SDS011;38766;53.194;5.532;2022-12-05T09:18:50;22.50;;;5.68;;
51556;SDS011;38766;53.194;5.532;2022-12-05T09:21:17;15.43;;;6.68;;
51556;SDS011;38766;53.194;5.532;2022-12-05T09:23:45;12.60;;;5.75;;
51556;SDS011;38766;53.194;5.532;2022-12-05T09:26:12;15.93;;;6.53;;
51556;SDS011;38766;53.194;5.532;2022-12-05T09:28:39;13.45;;;5.97;;
51556;SDS011;38766;53.194;5.532;2022-12-05T09:31:16;12.65;;;5.68;;
51556;SDS011;38766;53.194;5.532;2022-12-05T09:33:44;13.90;;;6.03;;
51556;SDS011;38766;53.194;5.532;2022-12-05T09:36:13;12.90;;;6.70;;
51556;SDS011;38766;53.194;5.532;2022-12-05T09:38:41;18.55;;;6.35;;
51556;SDS011;38766;53.194;5.532;2022-12-05T09:47:02;19.00;;;6.18;;
51556;SDS011;38766;53.194;5.532;2022-12-05T09:49:34;11.10;;;6.03;;
51556;SDS011;38766;53.194;5.532;2022-12-05T09:52:07;13.00;;;6.10;;
51556;SDS011;38766;53.194;5.532;2022-12-05T09:54:42;15.05;;;7.00;;
51556;SDS011;38766;53.194;5.532;2022-12-05T09:57:07;17.73;;;5.97;;
51556;SDS011;38766;53.194;5.532;2022-12-05T09:59:36;18.13;;;6.50;;
51556;SDS011;38766;53.194;5.532;2022-12-05T10:05:00;13.18;;;6.93;;
51556;SDS011;38766;53.194;5.532;2022-12-05T10:07:53;17.67;;;6.72;;
51556;SDS011;38766;53.194;5.532;2022-12-05T10:10:59;15.88;;;6.45;;
51556;SDS011;38766;53.194;5.532;2022-12-05T10:13:29;15.77;;;6.78;;
51556;SDS011;38766;53.194;5.532;2022-12-05T10:16:20;18.00;;;6.85;;
51556;SDS011;38766;53.194;5.532;2022-12-05T10:19:15;15.30;;;6.35;;
51556;SDS011;38766;53.194;5.532;2022-12-05T10:24:42;14.55;;;6.07;;
51556;SDS011;38766;53.194;5.532;2022-12-05T10:27:16;11.80;;;6.55;;
51556;SDS011;38766;53.194;5.532;2022-12-05T10:30:01;16.25;;;7.63;;
51556;SDS011;38766;53.194;5.532;2022-12-05T10:34:59;17.23;;;6.88;;
51556;SDS011;38766;53.194;5.532;2022-12-05T10:37:38;12.88;;;6.45;;
51556;SDS011;38766;53.194;5.532;2022-12-05T10:40:03;14.30;;;7.00;;
51556;SDS011;38766;53.194;5.532;2022-12-05T10:42:33;16.05;;;7.03;;
51556;SDS011;38766;53.194;5.532;2022-12-05T10:45:04;16.13;;;6.43;;
51556;SDS011;38766;53.194;5.532;2022-12-05T10:47:32;17.27;;;7.25;;
51556;SDS011;38766;53.194;5.532;2022-12-05T10:49:59;16.02;;;6.43;;
51556;SDS011;38766;53.194;5.532;2022-12-05T10:52:29;15.60;;;7.10;;
51556;SDS011;38766;53.194;5.532;2022-12-05T10:54:56;14.93;;;7.50;;
51556;SDS011;38766;53.194;5.532;2022-12-05T10:57:28;17.35;;;6.13;;
51556;SDS011;38766;53.194;5.532;2022-12-05T10:59:57;14.75;;;6.80;;
51556;SDS011;38766;53.194;5.532;2022-12-05T11:02:33;16.67;;;6.53;;
51556;SDS011;38766;53.194;5.532;2022-12-05T11:05:00;16.17;;;6.90;;
51556;SDS011;38766;53.194;5.532;2022-12-05T11:07:31;14.40;;;5.80;;
51556;SDS011;38766;53.194;5.532;2022-12-05T11:10:00;15.55;;;6.57;;
51556;SDS011;38766;53.194;5.532;2022-12-05T11:12:35;17.05;;;6.47;;
51556;SDS011;38766;53.194;5.532;2022-12-05T11:17:41;15.32;;;6.40;;
51556;SDS011;38766;53.194;5.532;2022-12-05T11:20:49;14.50;;;6.55;;
51556;SDS011;38766;53.194;5.532;2022-12-05T11:22:55;13.35;;;6.50;;
51556;SDS011;38766;53.194;5.532;2022-12-05T11:27:52;14.18;;;6.43;;
51556;SDS011;38766;53.194;5.532;2022-12-05T11:30:19;19.77;;;6.50;;
51556;SDS011;38766;53.194;5.532;2022-12-05T11:32:46;16.77;;;6.20;;
51556;SDS011;38766;53.194;5.532;2022-12-05T11:35:26;16.65;;;5.75;;
51556;SDS011;38766;53.194;5.532;2022-12-05T11:37:54;17.98;;;7.30;;
51556;SDS011;38766;53.194;5.532;2022-12-05T11:43:13;14.88;;;5.70;;
51556;SDS011;38766;53.194;5.532;2022-12-05T11:56:41;18.33;;;6.30;;
51556;SDS011;38766;53.194;5.532;2022-12-05T12:21:48;15.73;;;5.50;;
51556;SDS011;38766;53.194;5.532;2022-12-05T12:24:40;13.82;;;5.32;;
51556;SDS011;38766;53.194;5.532;2022-12-05T12:30:14;10.60;;;5.03;;
51556;SDS011;38766;53.194;5.532;2022-12-05T12:39:02;10.90;;;5.47;;
51556;SDS011;38766;53.194;5.532;2022-12-05T12:47:22;13.48;;;5.75;;
51556;SDS011;38766;53.194;5.532;2022-12-05T12:50:17;9.70;;;5.28;;
51556;SDS011;38766;53.194;5.532;2022-12-05T13:03:45;11.88;;;5.50;;
51556;SDS011;38766;53.194;5.532;2022-12-05T13:08:57;12.02;;;5.97;;
51556;SDS011;38766;53.194;5.532;2022-12-05T13:11:26;15.52;;;5.30;;
51556;SDS011;38766;53.194;5.532;2022-12-05T13:13:56;16.02;;;5.22;;
51556;SDS011;38766;53.194;5.532;2022-12-05T13:16:29;17.88;;;5.57;;
51556;SDS011;38766;53.194;5.532;2022-12-05T13:18:58;13.13;;;5.70;;
51556;SDS011;38766;53.194;5.532;2022-12-05T13:21:25;20.77;;;6.20;;
51556;SDS011;38766;53.194;5.532;2022-12-05T13:23:52;16.90;;;5.90;;
51556;SDS011;38766;53.194;5.532;2022-12-05T13:26:27;10.32;;;4.75;;
51556;SDS011;38766;53.194;5.532;2022-12-05T13:28:57;9.55;;;5.13;;
51556;SDS011;38766;53.194;5.532;2022-12-05T13:31:34;13.38;;;5.40;;
51556;SDS011;38766;53.194;5.532;2022-12-05T13:34:54;12.73;;;5.50;;
51556;SDS011;38766;53.194;5.532;2022-12-05T13:37:08;12.85;;;5.50;;
51556;SDS011;38766;53.194;5.532;2022-12-05T13:39:54;9.57;;;5.28;;
51556;SDS011;38766;53.194;5.532;2022-12-05T13:45:09;14.75;;;4.75;;
51556;SDS011;38766;53.194;5.532;2022-12-05T13:50:12;19.42;;;6.07;;
51556;SDS011;38766;53.194;5.532;2022-12-05T13:52:54;13.38;;;4.97;;
51556;SDS011;38766;53.194;5.532;2022-12-05T13:55:25;13.80;;;5.25;;
51556;SDS011;38766;53.194;5.532;2022-12-05T14:00:43;11.80;;;5.15;;
51556;SDS011;38766;53.194;5.532;2022-12-05T14:05:56;12.50;;;5.60;;
51556;SDS011;38766;53.194;5.532;2022-12-05T14:30:04;11.38;;;5.03;;
51556;SDS011;38766;53.194;5.532;2022-12-05T14:35:02;13.68;;;5.32;;
51556;SDS011;38766;53.194;5.532;2022-12-05T14:37:37;11.38;;;5.80;;
51556;SDS011;38766;53.194;5.532;2022-12-05T14:43:03;12.00;;;5.85;;
51556;SDS011;38766;53.194;5.532;2022-12-05T14:45:33;13.15;;;6.38;;
51556;SDS011;38766;53.194;5.532;2022-12-05T14:50:52;13.68;;;5.65;;
51556;SDS011;38766;53.194;5.532;2022-12-05T14:55:55;10.02;;;5.68;;
51556;SDS011;38766;53.194;5.532;2022-12-05T14:58:29;13.15;;;5.97;;
51556;SDS011;38766;53.194;5.532;2022-12-05T15:01:27;14.38;;;5.53;;
51556;SDS011;38766;53.194;5.532;2022-12-05T15:06:34;11.77;;;5.30;;
51556;SDS011;38766;53.194;5.532;2022-12-05T15:12:11;13.65;;;6.22;;
51556;SDS011;38766;53.194;5.532;2022-12-05T15:17:14;12.55;;;5.20;;
51556;SDS011;38766;53.194;5.532;2022-12-05T15:19:56;13.30;;;5.82;;
51556;SDS011;38766;53.194;5.532;2022-12-05T15:22:42;14.60;;;6.05;;
51556;SDS011;38766;53.194;5.532;2022-12-05T15:25:19;20.00;;;6.13;;
51556;SDS011;38766;53.194;5.532;2022-12-05T15:30:27;20.83;;;8.03;;
51556;SDS011;38766;53.194;5.532;2022-12-05T15:32:54;12.15;;;5.90;;
51556;SDS011;38766;53.194;5.532;2022-12-05T15:35:21;21.08;;;6.03;;
51556;SDS011;38766;53.194;5.532;2022-12-05T15:40:23;22.05;;;10.85;;
51556;SDS011;38766;53.194;5.532;2022-12-05T15:42:53;20.05;;;7.65;;
51556;SDS011;38766;53.194;5.532;2022-12-05T15:45:23;18.17;;;8.95;;
51556;SDS011;38766;53.194;5.532;2022-12-05T15:47:53;19.63;;;7.47;;
51556;SDS011;38766;53.194;5.532;2022-12-05T15:53:24;19.17;;;8.15;;
51556;SDS011;38766;53.194;5.532;2022-12-05T15:56:03;20.40;;;7.40;;
51556;SDS011;38766;53.194;5.532;2022-12-05T16:01:29;17.75;;;7.45;;
51556;SDS011;38766;53.194;5.532;2022-12-05T16:04:10;13.40;;;6.60;;
51556;SDS011;38766;53.194;5.532;2022-12-05T16:06:38;18.38;;;7.32;;
51556;SDS011;38766;53.194;5.532;2022-12-05T16:09:17;16.95;;;7.47;;
51556;SDS011;38766;53.194;5.532;2022-12-05T16:14:25;15.18;;;6.38;;
51556;SDS011;38766;53.194;5.532;2022-12-05T16:16:57;17.67;;;7.13;;
51556;SDS011;38766;53.194;5.532;2022-12-05T16:19:24;18.70;;;7.90;;
51556;SDS011;38766;53.194;5.532;2022-12-05T16:22:07;15.13;;;8.45;;
51556;SDS011;38766;53.194;5.532;2022-12-05T16:24:44;16.10;;;6.70;;
51556;SDS011;38766;53.194;5.532;2022-12-05T16:27:33;22.63;;;7.28;;
51556;SDS011;38766;53.194;5.532;2022-12-05T16:30:07;23.67;;;7.88;;
51556;SDS011;38766;53.194;5.532;2022-12-05T16:32:36;18.73;;;6.53;;
51556;SDS011;38766;53.194;5.532;2022-12-05T16:41:02;15.35;;;6.28;;
51556;SDS011;38766;53.194;5.532;2022-12-05T16:48:39;17.38;;;7.28;;
51556;SDS011;38766;53.194;5.532;2022-12-05T16:51:23;14.15;;;5.85;;
51556;SDS011;38766;53.194;5.532;2022-12-05T16:53:53;17.73;;;8.30;;
51556;SDS011;38766;53.194;5.532;2022-12-05T16:58:49;18.17;;;6.85;;
51556;SDS011;38766;53.194;5.532;2022-12-05T17:01:20;14.85;;;5.65;;
51556;SDS011;38766;53.194;5.532;2022-12-05T17:03:46;15.00;;;5.57;;
51556;SDS011;38766;53.194;5.532;2022-12-05T17:06:12;15.75;;;5.38;;
51556;SDS011;38766;53.194;5.532;2022-12-05T17:08:39;18.90;;;6.07;;
51556;SDS011;38766;53.194;5.532;2022-12-05T17:11:06;13.98;;;5.47;;
51556;SDS011;38766;53.194;5.532;2022-12-05T17:13:38;12.13;;;5.07;;
51556;SDS011;38766;53.194;5.532;2022-12-05T17:16:04;18.02;;;5.32;;
51556;SDS011;38766;53.194;5.532;2022-12-05T17:18:30;13.50;;;5.20;;
51556;SDS011;38766;53.194;5.532;2022-12-05T17:20:56;23.65;;;10.18;;
51556;SDS011;38766;53.194;5.532;2022-12-05T17:23:25;13.98;;;5.82;;
51556;SDS011;38766;53.194;5.532;2022-12-05T17:25:51;11.07;;;6.57;;
51556;SDS011;38766;53.194;5.532;2022-12-05T17:28:18;22.17;;;18.60;;
51556;SDS011;38766;53.194;5.532;2022-12-05T17:30:44;49.70;;;43.65;;
51556;SDS011;38766;53.194;5.532;2022-12-05T17:33:11;25.83;;;19.40;;
51556;SDS011;38766;53.194;5.532;2022-12-05T17:35:38;19.90;;;13.70;;
51556;SDS011;38766;53.194;5.532;2022-12-05T17:38:04;16.48;;;9.40;;
51556;SDS011;38766;53.194;5.532;2022-12-05T17:40:31;19.00;;;10.93;;
51556;SDS011;38766;53.194;5.532;2022-12-05T17:42:57;20.83;;;13.52;;
51556;SDS011;38766;53.194;5.532;2022-12-05T17:45:23;13.90;;;5.50;;
51556;SDS011;38766;53.194;5.532;2022-12-05T17:47:49;17.60;;;5.35;;
51556;SDS011;38766;53.194;5.532;2022-12-05T17:50:16;12.10;;;6.50;;
51556;SDS011;38766;53.194;5.532;2022-12-05T17:52:43;11.93;;;6.40;;
51556;SDS011;38766;53.194;5.532;2022-12-05T17:55:20;10.18;;;6.07;;
51556;SDS011;38766;53.194;5.532;2022-12-05T17:57:47;19.83;;;7.80;;
51556;SDS011;38766;53.194;5.532;2022-12-05T18:00:14;14.63;;;6.25;;
51556;SDS011;38766;53.194;5.532;2022-12-05T18:02:41;13.32;;;6.88;;
51556;SDS011;38766;53.194;5.532;2022-12-05T18:05:08;14.40;;;5.93;;
51556;SDS011;38766;53.194;5.532;2022-12-05T18:07:38;22.90;;;10.70;;
51556;SDS011;38766;53.194;5.532;2022-12-05T18:10:05;14.93;;;4.78;;
51556;SDS011;38766;53.194;5.532;2022-12-05T18:12:33;13.45;;;4.63;;
51556;SDS011;38766;53.194;5.532;2022-12-05T18:14:59;12.23;;;4.38;;
51556;SDS011;38766;53.194;5.532;2022-12-05T18:17:25;10.63;;;3.90;;